sensor_id;sensor_type;location;lat;lon;timestamp;P1;durP1;ratioP1;P2;durP2;ratioP2
30301;SDS011;17111;52.130;5.028;2023-11-22T00:00:16;12.63;;;8.80;;
30301;SDS011;17111;52.130;5.028;2023-11-22T00:02:43;12.75;;;8.85;;
30301;SDS011;17111;52.130;5.028;2023-11-22T00:05:09;12.68;;;8.35;;
30301;SDS011;17111;52.130;5.028;2023-11-22T00:07:37;13.18;;;8.27;;
30301;SDS011;17111;52.130;5.028;2023-11-22T00:10:04;12.00;;;7.85;;
30301;SDS011;17111;52.130;5.028;2023-11-22T00:12:32;11.25;;;7.45;;
30301;SDS011;17111;52.130;5.028;2023-11-22T00:15:05;12.25;;;8.13;;
30301;SDS011;17111;52.130;5.028;2023-11-22T00:17:33;12.23;;;7.72;;
30301;SDS011;17111;52.130;5.028;2023-11-22T00:20:01;12.02;;;8.05;;
30301;SDS011;17111;52.130;5.028;2023-11-22T00:22:32;12.77;;;8.57;;
30301;SDS011;17111;52.130;5.028;2023-11-22T00:24:59;11.50;;;7.60;;
30301;SDS011;17111;52.130;5.028;2023-11-22T00:27:32;12.07;;;7.78;;
30301;SDS011;17111;52.130;5.028;2023-11-22T00:29:59;11.00;;;7.53;;
30301;SDS011;17111;52.130;5.028;2023-11-22T00:32:25;10.95;;;7.63;;
30301;SDS011;17111;52.130;5.028;2023-11-22T00:34:52;10.95;;;7.65;;
30301;SDS011;17111;52.130;5.028;2023-11-22T00:37:19;11.15;;;7.38;;
30301;SDS011;17111;52.130;5.028;2023-11-22T00:39:46;10.98;;;7.68;;
30301;SDS011;17111;52.130;5.028;2023-11-22T00:42:12;11.32;;;7.57;;
30301;SDS011;17111;52.130;5.028;2023-11-22T00:44:39;10.95;;;7.43;;
30301;SDS011;17111;52.130;5.028;2023-11-22T00:47:05;10.82;;;7.75;;
30301;SDS011;17111;52.130;5.028;2023-11-22T00:49:32;11.80;;;6.75;;
30301;SDS011;17111;52.130;5.028;2023-11-22T00:51:59;10.82;;;7.10;;
30301;SDS011;17111;52.130;5.028;2023-11-22T00:54:27;11.00;;;6.75;;
30301;SDS011;17111;52.130;5.028;2023-11-22T00:56:54;10.40;;;7.40;;
30301;SDS011;17111;52.130;5.028;2023-11-22T00:59:21;10.38;;;7.18;;
30301;SDS011;17111;52.130;5.028;2023-11-22T01:01:48;9.68;;;6.72;;
30301;SDS011;17111;52.130;5.028;2023-11-22T01:04:14;11.68;;;7.35;;
30301;SDS011;17111;52.130;5.028;2023-11-22T01:06:41;9.40;;;6.00;;
30301;SDS011;17111;52.130;5.028;2023-11-22T01:09:08;10.00;;;6.88;;
30301;SDS011;17111;52.130;5.028;2023-11-22T01:11:40;11.05;;;6.57;;
30301;SDS011;17111;52.130;5.028;2023-11-22T01:14:07;8.98;;;6.28;;
30301;SDS011;17111;52.130;5.028;2023-11-22T01:16:33;9.95;;;6.80;;
30301;SDS011;17111;52.130;5.028;2023-11-22T01:19:00;9.20;;;6.40;;
30301;SDS011;17111;52.130;5.028;2023-11-22T01:21:27;12.43;;;6.72;;
30301;SDS011;17111;52.130;5.028;2023-11-22T01:23:54;7.63;;;5.43;;
30301;SDS011;17111;52.130;5.028;2023-11-22T01:26:21;8.77;;;6.15;;
30301;SDS011;17111;52.130;5.028;2023-11-22T01:28:47;10.13;;;6.32;;
30301;SDS011;17111;52.130;5.028;2023-11-22T01:31:14;8.82;;;6.00;;
30301;SDS011;17111;52.130;5.028;2023-11-22T01:33:41;8.85;;;6.68;;
30301;SDS011;17111;52.130;5.028;2023-11-22T01:36:07;10.02;;;6.47;;
30301;SDS011;17111;52.130;5.028;2023-11-22T01:38:35;9.10;;;6.05;;
30301;SDS011;17111;52.130;5.028;2023-11-22T01:41:02;8.15;;;5.75;;
30301;SDS011;17111;52.130;5.028;2023-11-22T01:43:28;8.63;;;6.07;;
30301;SDS011;17111;52.130;5.028;2023-11-22T01:45:55;8.48;;;5.95;;
30301;SDS011;17111;52.130;5.028;2023-11-22T01:48:22;7.50;;;5.25;;
30301;SDS011;17111;52.130;5.028;2023-11-22T01:50:49;9.13;;;6.22;;
30301;SDS011;17111;52.130;5.028;2023-11-22T01:53:16;7.32;;;5.75;;
30301;SDS011;17111;52.130;5.028;2023-11-22T01:55:43;7.40;;;5.05;;
30301;SDS011;17111;52.130;5.028;2023-11-22T01:58:11;8.30;;;5.85;;
30301;SDS011;17111;52.130;5.028;2023-11-22T02:00:59;7.30;;;5.72;;
30301;SDS011;17111;52.130;5.028;2023-11-22T02:03:25;7.72;;;5.47;;
30301;SDS011;17111;52.130;5.028;2023-11-22T02:05:52;8.68;;;6.03;;
30301;SDS011;17111;52.130;5.028;2023-11-22T02:08:20;8.40;;;5.55;;
30301;SDS011;17111;52.130;5.028;2023-11-22T02:10:56;8.35;;;5.53;;
30301;SDS011;17111;52.130;5.028;2023-11-22T02:13:27;8.60;;;5.80;;
30301;SDS011;17111;52.130;5.028;2023-11-22T02:15:54;6.60;;;5.05;;
30301;SDS011;17111;52.130;5.028;2023-11-22T02:18:22;7.57;;;5.38;;
30301;SDS011;17111;52.130;5.028;2023-11-22T02:20:49;8.13;;;5.32;;
30301;SDS011;17111;52.130;5.028;2023-11-22T02:23:17;6.95;;;5.30;;
30301;SDS011;17111;52.130;5.028;2023-11-22T02:25:44;6.43;;;4.95;;
30301;SDS011;17111;52.130;5.028;2023-11-22T02:28:14;7.97;;;5.13;;
30301;SDS011;17111;52.130;5.028;2023-11-22T02:30:40;7.65;;;4.97;;
30301;SDS011;17111;52.130;5.028;2023-11-22T02:33:08;6.25;;;4.78;;
30301;SDS011;17111;52.130;5.028;2023-11-22T02:35:35;6.53;;;4.80;;
30301;SDS011;17111;52.130;5.028;2023-11-22T02:38:02;8.15;;;4.90;;
30301;SDS011;17111;52.130;5.028;2023-11-22T02:40:28;8.30;;;4.70;;
30301;SDS011;17111;52.130;5.028;2023-11-22T02:42:55;7.78;;;5.03;;
30301;SDS011;17111;52.130;5.028;2023-11-22T02:45:28;6.28;;;4.75;;
30301;SDS011;17111;52.130;5.028;2023-11-22T02:47:55;7.18;;;5.05;;
30301;SDS011;17111;52.130;5.028;2023-11-22T02:50:22;6.53;;;4.70;;
30301;SDS011;17111;52.130;5.028;2023-11-22T02:52:48;7.05;;;4.70;;
30301;SDS011;17111;52.130;5.028;2023-11-22T02:55:15;6.07;;;4.70;;
30301;SDS011;17111;52.130;5.028;2023-11-22T02:57:42;6.68;;;4.72;;
30301;SDS011;17111;52.130;5.028;2023-11-22T03:00:09;6.70;;;4.57;;
30301;SDS011;17111;52.130;5.028;2023-11-22T03:05:09;6.82;;;4.53;;
30301;SDS011;17111;52.130;5.028;2023-11-22T03:07:36;5.38;;;4.13;;
30301;SDS011;17111;52.130;5.028;2023-11-22T03:10:04;5.65;;;4.30;;
30301;SDS011;17111;52.130;5.028;2023-11-22T03:12:31;5.88;;;4.25;;
30301;SDS011;17111;52.130;5.028;2023-11-22T03:14:57;6.32;;;4.22;;
30301;SDS011;17111;52.130;5.028;2023-11-22T03:17:26;5.40;;;3.88;;
30301;SDS011;17111;52.130;5.028;2023-11-22T03:19:57;5.55;;;4.00;;
30301;SDS011;17111;52.130;5.028;2023-11-22T03:22:24;5.97;;;4.22;;
30301;SDS011;17111;52.130;5.028;2023-11-22T03:24:52;5.35;;;4.28;;
30301;SDS011;17111;52.130;5.028;2023-11-22T03:27:19;5.78;;;4.28;;
30301;SDS011;17111;52.130;5.028;2023-11-22T03:29:48;4.55;;;3.58;;
30301;SDS011;17111;52.130;5.028;2023-11-22T03:32:15;5.03;;;4.20;;
30301;SDS011;17111;52.130;5.028;2023-11-22T03:34:41;5.97;;;4.15;;
30301;SDS011;17111;52.130;5.028;2023-11-22T03:37:08;5.20;;;3.85;;
30301;SDS011;17111;52.130;5.028;2023-11-22T03:39:35;5.85;;;4.00;;
30301;SDS011;17111;52.130;5.028;2023-11-22T03:42:01;5.78;;;3.75;;
30301;SDS011;17111;52.130;5.028;2023-11-22T03:44:28;6.28;;;4.25;;
30301;SDS011;17111;52.130;5.028;2023-11-22T03:46:56;6.28;;;3.95;;
30301;SDS011;17111;52.130;5.028;2023-11-22T03:49:22;4.65;;;3.65;;
30301;SDS011;17111;52.130;5.028;2023-11-22T03:51:49;5.45;;;4.30;;
30301;SDS011;17111;52.130;5.028;2023-11-22T03:54:16;4.97;;;3.95;;
30301;SDS011;17111;52.130;5.028;2023-11-22T03:56:42;4.82;;;3.83;;
30301;SDS011;17111;52.130;5.028;2023-11-22T03:59:10;6.15;;;4.15;;
30301;SDS011;17111;52.130;5.028;2023-11-22T04:01:37;5.97;;;4.18;;
30301;SDS011;17111;52.130;5.028;2023-11-22T04:04:03;5.40;;;3.92;;
30301;SDS011;17111;52.130;5.028;2023-11-22T04:06:30;5.65;;;3.65;;
30301;SDS011;17111;52.130;5.028;2023-11-22T04:08:59;5.05;;;3.60;;
30301;SDS011;17111;52.130;5.028;2023-11-22T04:11:26;5.45;;;3.97;;
30301;SDS011;17111;52.130;5.028;2023-11-22T04:13:55;4.75;;;3.63;;
30301;SDS011;17111;52.130;5.028;2023-11-22T04:16:22;4.30;;;3.58;;
30301;SDS011;17111;52.130;5.028;2023-11-22T04:18:49;4.63;;;3.78;;
30301;SDS011;17111;52.130;5.028;2023-11-22T04:21:16;5.00;;;3.95;;
30301;SDS011;17111;52.130;5.028;2023-11-22T04:23:43;4.78;;;3.72;;
30301;SDS011;17111;52.130;5.028;2023-11-22T04:26:09;5.10;;;3.90;;
30301;SDS011;17111;52.130;5.028;2023-11-22T04:28:37;4.20;;;3.50;;
30301;SDS011;17111;52.130;5.028;2023-11-22T04:31:03;4.68;;;3.50;;
30301;SDS011;17111;52.130;5.028;2023-11-22T04:33:30;4.72;;;3.50;;
30301;SDS011;17111;52.130;5.028;2023-11-22T04:35:57;5.13;;;3.70;;
30301;SDS011;17111;52.130;5.028;2023-11-22T04:38:23;4.82;;;3.88;;
30301;SDS011;17111;52.130;5.028;2023-11-22T04:40:51;5.35;;;3.53;;
30301;SDS011;17111;52.130;5.028;2023-11-22T04:43:18;4.47;;;3.50;;
30301;SDS011;17111;52.130;5.028;2023-11-22T04:45:45;4.55;;;3.40;;
30301;SDS011;17111;52.130;5.028;2023-11-22T04:48:11;4.93;;;3.40;;
30301;SDS011;17111;52.130;5.028;2023-11-22T04:50:41;3.90;;;3.08;;
30301;SDS011;17111;52.130;5.028;2023-11-22T04:53:09;4.45;;;3.28;;
30301;SDS011;17111;52.130;5.028;2023-11-22T04:55:37;4.10;;;3.13;;
30301;SDS011;17111;52.130;5.028;2023-11-22T04:58:03;5.03;;;3.50;;
30301;SDS011;17111;52.130;5.028;2023-11-22T05:00:30;4.70;;;3.60;;
30301;SDS011;17111;52.130;5.028;2023-11-22T05:02:57;3.78;;;3.00;;
30301;SDS011;17111;52.130;5.028;2023-11-22T05:05:23;4.07;;;3.28;;
30301;SDS011;17111;52.130;5.028;2023-11-22T05:07:50;4.82;;;3.58;;
30301;SDS011;17111;52.130;5.028;2023-11-22T05:10:17;3.85;;;3.08;;
30301;SDS011;17111;52.130;5.028;2023-11-22T05:12:44;4.53;;;3.80;;
30301;SDS011;17111;52.130;5.028;2023-11-22T05:15:11;4.80;;;3.20;;
30301;SDS011;17111;52.130;5.028;2023-11-22T05:17:38;4.88;;;3.05;;
30301;SDS011;17111;52.130;5.028;2023-11-22T05:20:05;4.47;;;3.55;;
30301;SDS011;17111;52.130;5.028;2023-11-22T05:22:36;5.45;;;3.92;;
30301;SDS011;17111;52.130;5.028;2023-11-22T05:25:03;5.30;;;3.78;;
30301;SDS011;17111;52.130;5.028;2023-11-22T05:27:30;4.65;;;3.50;;
30301;SDS011;17111;52.130;5.028;2023-11-22T05:29:59;5.60;;;3.70;;
30301;SDS011;17111;52.130;5.028;2023-11-22T05:32:27;6.57;;;4.03;;
30301;SDS011;17111;52.130;5.028;2023-11-22T05:34:55;5.57;;;3.85;;
30301;SDS011;17111;52.130;5.028;2023-11-22T05:37:22;7.15;;;4.60;;
30301;SDS011;17111;52.130;5.028;2023-11-22T05:39:50;5.47;;;3.95;;
30301;SDS011;17111;52.130;5.028;2023-11-22T05:42:17;4.90;;;4.03;;
30301;SDS011;17111;52.130;5.028;2023-11-22T05:44:44;4.82;;;3.60;;
30301;SDS011;17111;52.130;5.028;2023-11-22T05:47:11;5.65;;;4.07;;
30301;SDS011;17111;52.130;5.028;2023-11-22T05:49:39;6.03;;;4.07;;
30301;SDS011;17111;52.130;5.028;2023-11-22T05:52:06;5.85;;;4.22;;
30301;SDS011;17111;52.130;5.028;2023-11-22T05:54:33;7.00;;;4.70;;
30301;SDS011;17111;52.130;5.028;2023-11-22T05:56:59;6.57;;;4.57;;
30301;SDS011;17111;52.130;5.028;2023-11-22T05:59:26;6.72;;;4.80;;
30301;SDS011;17111;52.130;5.028;2023-11-22T06:01:53;6.35;;;4.13;;
30301;SDS011;17111;52.130;5.028;2023-11-22T06:04:19;7.78;;;5.03;;
30301;SDS011;17111;52.130;5.028;2023-11-22T06:06:46;7.15;;;4.75;;
30301;SDS011;17111;52.130;5.028;2023-11-22T06:09:13;6.07;;;4.80;;
30301;SDS011;17111;52.130;5.028;2023-11-22T06:11:40;6.72;;;4.60;;
30301;SDS011;17111;52.130;5.028;2023-11-22T06:14:07;7.75;;;5.32;;
30301;SDS011;17111;52.130;5.028;2023-11-22T06:16:34;6.80;;;5.13;;
30301;SDS011;17111;52.130;5.028;2023-11-22T06:19:00;8.50;;;4.65;;
30301;SDS011;17111;52.130;5.028;2023-11-22T06:21:27;6.93;;;5.32;;
30301;SDS011;17111;52.130;5.028;2023-11-22T06:23:54;5.95;;;4.78;;
30301;SDS011;17111;52.130;5.028;2023-11-22T06:26:24;6.47;;;4.85;;
30301;SDS011;17111;52.130;5.028;2023-11-22T06:28:51;6.75;;;4.88;;
30301;SDS011;17111;52.130;5.028;2023-11-22T06:31:17;7.30;;;4.85;;
30301;SDS011;17111;52.130;5.028;2023-11-22T06:33:45;8.55;;;5.43;;
30301;SDS011;17111;52.130;5.028;2023-11-22T06:36:11;6.95;;;4.85;;
30301;SDS011;17111;52.130;5.028;2023-11-22T06:38:40;7.03;;;5.05;;
30301;SDS011;17111;52.130;5.028;2023-11-22T06:41:07;7.50;;;5.00;;
30301;SDS011;17111;52.130;5.028;2023-11-22T06:43:34;6.60;;;4.80;;
30301;SDS011;17111;52.130;5.028;2023-11-22T06:46:01;7.72;;;4.95;;
30301;SDS011;17111;52.130;5.028;2023-11-22T06:48:32;9.25;;;5.38;;
30301;SDS011;17111;52.130;5.028;2023-11-22T06:50:59;7.35;;;5.43;;
30301;SDS011;17111;52.130;5.028;2023-11-22T06:53:27;6.60;;;5.20;;
30301;SDS011;17111;52.130;5.028;2023-11-22T06:55:53;6.90;;;5.07;;
30301;SDS011;17111;52.130;5.028;2023-11-22T06:58:20;7.10;;;5.05;;
30301;SDS011;17111;52.130;5.028;2023-11-22T07:00:47;8.38;;;5.45;;
30301;SDS011;17111;52.130;5.028;2023-11-22T07:03:14;6.30;;;4.63;;
30301;SDS011;17111;52.130;5.028;2023-11-22T07:05:42;7.57;;;5.00;;
30301;SDS011;17111;52.130;5.028;2023-11-22T07:08:09;7.57;;;5.38;;
30301;SDS011;17111;52.130;5.028;2023-11-22T07:10:37;7.55;;;4.60;;
30301;SDS011;17111;52.130;5.028;2023-11-22T07:13:04;7.28;;;5.22;;
30301;SDS011;17111;52.130;5.028;2023-11-22T07:15:31;8.32;;;5.50;;
30301;SDS011;17111;52.130;5.028;2023-11-22T07:17:58;8.40;;;5.00;;
30301;SDS011;17111;52.130;5.028;2023-11-22T07:20:25;7.03;;;5.13;;
30301;SDS011;17111;52.130;5.028;2023-11-22T07:22:53;6.75;;;4.80;;
30301;SDS011;17111;52.130;5.028;2023-11-22T07:25:23;11.35;;;5.15;;
30301;SDS011;17111;52.130;5.028;2023-11-22T07:27:55;7.80;;;5.25;;
30301;SDS011;17111;52.130;5.028;2023-11-22T07:30:22;7.95;;;5.13;;
30301;SDS011;17111;52.130;5.028;2023-11-22T07:32:56;7.95;;;5.13;;
30301;SDS011;17111;52.130;5.028;2023-11-22T07:35:23;8.85;;;5.40;;
30301;SDS011;17111;52.130;5.028;2023-11-22T07:37:51;7.95;;;5.40;;
30301;SDS011;17111;52.130;5.028;2023-11-22T07:40:18;7.85;;;5.57;;
30301;SDS011;17111;52.130;5.028;2023-11-22T07:42:45;7.55;;;5.47;;
30301;SDS011;17111;52.130;5.028;2023-11-22T07:45:12;6.60;;;4.63;;
30301;SDS011;17111;52.130;5.028;2023-11-22T07:47:39;6.45;;;4.55;;
30301;SDS011;17111;52.130;5.028;2023-11-22T07:50:08;8.30;;;5.07;;
30301;SDS011;17111;52.130;5.028;2023-11-22T07:52:35;7.55;;;5.03;;
30301;SDS011;17111;52.130;5.028;2023-11-22T07:55:04;7.10;;;4.25;;
30301;SDS011;17111;52.130;5.028;2023-11-22T07:57:34;10.65;;;4.65;;
30301;SDS011;17111;52.130;5.028;2023-11-22T08:00:01;6.03;;;4.55;;
30301;SDS011;17111;52.130;5.028;2023-11-22T08:02:31;6.15;;;4.10;;
30301;SDS011;17111;52.130;5.028;2023-11-22T08:04:59;6.72;;;4.85;;
30301;SDS011;17111;52.130;5.028;2023-11-22T08:07:29;6.40;;;4.72;;
30301;SDS011;17111;52.130;5.028;2023-11-22T08:09:56;8.80;;;5.25;;
30301;SDS011;17111;52.130;5.028;2023-11-22T08:12:23;6.57;;;4.97;;
30301;SDS011;17111;52.130;5.028;2023-11-22T08:14:49;8.13;;;5.10;;
30301;SDS011;17111;52.130;5.028;2023-11-22T08:17:17;6.68;;;4.78;;
30301;SDS011;17111;52.130;5.028;2023-11-22T08:19:45;5.70;;;4.10;;
30301;SDS011;17111;52.130;5.028;2023-11-22T08:22:14;7.05;;;5.15;;
30301;SDS011;17111;52.130;5.028;2023-11-22T08:24:40;7.30;;;4.70;;
30301;SDS011;17111;52.130;5.028;2023-11-22T08:27:07;7.68;;;5.55;;
30301;SDS011;17111;52.130;5.028;2023-11-22T08:29:34;7.53;;;5.47;;
30301;SDS011;17111;52.130;5.028;2023-11-22T08:32:00;7.78;;;5.20;;
30301;SDS011;17111;52.130;5.028;2023-11-22T08:34:28;6.70;;;4.80;;
30301;SDS011;17111;52.130;5.028;2023-11-22T08:36:55;8.02;;;5.60;;
30301;SDS011;17111;52.130;5.028;2023-11-22T08:39:23;6.97;;;4.63;;
30301;SDS011;17111;52.130;5.028;2023-11-22T08:41:50;9.88;;;5.80;;
30301;SDS011;17111;52.130;5.028;2023-11-22T08:44:17;6.15;;;4.75;;
30301;SDS011;17111;52.130;5.028;2023-11-22T08:46:43;7.60;;;5.30;;
30301;SDS011;17111;52.130;5.028;2023-11-22T08:49:10;7.53;;;5.00;;
30301;SDS011;17111;52.130;5.028;2023-11-22T08:51:37;9.35;;;4.40;;
30301;SDS011;17111;52.130;5.028;2023-11-22T08:54:04;7.60;;;4.68;;
30301;SDS011;17111;52.130;5.028;2023-11-22T08:56:31;5.57;;;4.07;;
30301;SDS011;17111;52.130;5.028;2023-11-22T08:58:57;8.00;;;5.00;;
30301;SDS011;17111;52.130;5.028;2023-11-22T09:01:24;6.88;;;4.70;;
30301;SDS011;17111;52.130;5.028;2023-11-22T09:03:52;8.63;;;4.43;;
30301;SDS011;17111;52.130;5.028;2023-11-22T09:06:18;5.47;;;4.57;;
30301;SDS011;17111;52.130;5.028;2023-11-22T09:08:45;6.93;;;4.95;;
30301;SDS011;17111;52.130;5.028;2023-11-22T09:11:12;9.73;;;4.85;;
30301;SDS011;17111;52.130;5.028;2023-11-22T09:13:39;7.18;;;4.90;;
30301;SDS011;17111;52.130;5.028;2023-11-22T09:16:06;6.80;;;4.72;;
30301;SDS011;17111;52.130;5.028;2023-11-22T09:18:34;5.53;;;4.15;;
30301;SDS011;17111;52.130;5.028;2023-11-22T09:21:04;7.15;;;5.55;;
30301;SDS011;17111;52.130;5.028;2023-11-22T09:23:31;7.45;;;4.97;;
30301;SDS011;17111;52.130;5.028;2023-11-22T09:25:57;8.35;;;5.20;;
30301;SDS011;17111;52.130;5.028;2023-11-22T09:28:24;7.47;;;4.63;;
30301;SDS011;17111;52.130;5.028;2023-11-22T09:30:51;6.95;;;5.05;;
30301;SDS011;17111;52.130;5.028;2023-11-22T09:33:19;7.18;;;4.90;;
30301;SDS011;17111;52.130;5.028;2023-11-22T09:35:46;6.82;;;4.78;;
30301;SDS011;17111;52.130;5.028;2023-11-22T09:38:14;6.20;;;4.75;;
30301;SDS011;17111;52.130;5.028;2023-11-22T09:40:43;6.88;;;4.88;;
30301;SDS011;17111;52.130;5.028;2023-11-22T09:43:12;7.55;;;5.07;;
30301;SDS011;17111;52.130;5.028;2023-11-22T09:45:43;9.13;;;5.38;;
30301;SDS011;17111;52.130;5.028;2023-11-22T09:48:20;8.95;;;5.80;;
30301;SDS011;17111;52.130;5.028;2023-11-22T09:50:53;7.43;;;4.88;;
30301;SDS011;17111;52.130;5.028;2023-11-22T09:53:33;6.70;;;5.22;;
30301;SDS011;17111;52.130;5.028;2023-11-22T09:56:03;7.82;;;5.13;;
30301;SDS011;17111;52.130;5.028;2023-11-22T09:58:33;5.35;;;4.30;;
30301;SDS011;17111;52.130;5.028;2023-11-22T10:01:00;8.95;;;4.68;;
30301;SDS011;17111;52.130;5.028;2023-11-22T10:03:28;8.27;;;4.88;;
30301;SDS011;17111;52.130;5.028;2023-11-22T10:05:55;5.65;;;4.72;;
30301;SDS011;17111;52.130;5.028;2023-11-22T10:08:23;7.20;;;5.30;;
30301;SDS011;17111;52.130;5.028;2023-11-22T10:10:51;6.13;;;4.70;;
30301;SDS011;17111;52.130;5.028;2023-11-22T10:13:17;7.18;;;4.70;;
30301;SDS011;17111;52.130;5.028;2023-11-22T10:15:49;5.65;;;4.47;;
30301;SDS011;17111;52.130;5.028;2023-11-22T10:18:17;7.95;;;5.30;;
30301;SDS011;17111;52.130;5.028;2023-11-22T10:20:44;6.95;;;4.30;;
30301;SDS011;17111;52.130;5.028;2023-11-22T10:23:13;6.80;;;4.57;;
30301;SDS011;17111;52.130;5.028;2023-11-22T10:25:59;6.80;;;4.93;;
30301;SDS011;17111;52.130;5.028;2023-11-22T10:28:26;6.65;;;5.07;;
30301;SDS011;17111;52.130;5.028;2023-11-22T10:30:54;6.90;;;5.07;;
30301;SDS011;17111;52.130;5.028;2023-11-22T10:33:21;6.53;;;4.78;;
30301;SDS011;17111;52.130;5.028;2023-11-22T10:35:50;6.00;;;4.80;;
30301;SDS011;17111;52.130;5.028;2023-11-22T10:38:20;6.30;;;4.80;;
30301;SDS011;17111;52.130;5.028;2023-11-22T10:40:47;8.45;;;5.10;;
30301;SDS011;17111;52.130;5.028;2023-11-22T10:43:15;8.13;;;5.30;;
30301;SDS011;17111;52.130;5.028;2023-11-22T10:45:43;7.07;;;5.13;;
30301;SDS011;17111;52.130;5.028;2023-11-22T10:48:17;6.85;;;4.75;;
30301;SDS011;17111;52.130;5.028;2023-11-22T10:50:44;8.07;;;5.45;;
30301;SDS011;17111;52.130;5.028;2023-11-22T10:53:12;8.23;;;5.45;;
30301;SDS011;17111;52.130;5.028;2023-11-22T10:55:43;6.80;;;5.32;;
30301;SDS011;17111;52.130;5.028;2023-11-22T10:58:16;6.03;;;4.78;;
30301;SDS011;17111;52.130;5.028;2023-11-22T11:00:46;6.37;;;4.70;;
30301;SDS011;17111;52.130;5.028;2023-11-22T11:03:19;6.15;;;5.00;;
30301;SDS011;17111;52.130;5.028;2023-11-22T11:05:52;8.02;;;5.28;;
30301;SDS011;17111;52.130;5.028;2023-11-22T11:08:26;7.18;;;5.32;;
30301;SDS011;17111;52.130;5.028;2023-11-22T11:10:55;5.57;;;4.70;;
30301;SDS011;17111;52.130;5.028;2023-11-22T11:13:22;7.35;;;4.80;;
30301;SDS011;17111;52.130;5.028;2023-11-22T11:15:50;7.60;;;5.10;;
30301;SDS011;17111;52.130;5.028;2023-11-22T11:18:19;6.03;;;4.75;;
30301;SDS011;17111;52.130;5.028;2023-11-22T11:20:56;8.18;;;5.25;;
30301;SDS011;17111;52.130;5.028;2023-11-22T11:23:25;10.25;;;5.90;;
30301;SDS011;17111;52.130;5.028;2023-11-22T11:25:54;11.82;;;6.22;;
30301;SDS011;17111;52.130;5.028;2023-11-22T11:28:23;10.50;;;6.30;;
30301;SDS011;17111;52.130;5.028;2023-11-22T11:30:54;11.40;;;5.95;;
30301;SDS011;17111;52.130;5.028;2023-11-22T11:33:27;10.93;;;5.88;;
30301;SDS011;17111;52.130;5.028;2023-11-22T11:36:00;10.32;;;5.75;;
30301;SDS011;17111;52.130;5.028;2023-11-22T11:38:31;10.43;;;5.45;;
30301;SDS011;17111;52.130;5.028;2023-11-22T11:41:06;10.32;;;5.85;;
30301;SDS011;17111;52.130;5.028;2023-11-22T11:43:39;9.30;;;5.85;;
30301;SDS011;17111;52.130;5.028;2023-11-22T11:46:10;10.50;;;5.60;;
30301;SDS011;17111;52.130;5.028;2023-11-22T11:48:37;9.25;;;5.15;;
30301;SDS011;17111;52.130;5.028;2023-11-22T11:51:08;9.50;;;5.40;;
30301;SDS011;17111;52.130;5.028;2023-11-22T11:53:34;10.73;;;5.45;;
30301;SDS011;17111;52.130;5.028;2023-11-22T11:56:01;8.57;;;5.30;;
30301;SDS011;17111;52.130;5.028;2023-11-22T11:58:28;10.07;;;5.57;;
30301;SDS011;17111;52.130;5.028;2023-11-22T12:00:55;8.15;;;4.85;;
30301;SDS011;17111;52.130;5.028;2023-11-22T12:03:22;9.52;;;5.15;;
30301;SDS011;17111;52.130;5.028;2023-11-22T12:05:49;10.80;;;5.60;;
30301;SDS011;17111;52.130;5.028;2023-11-22T12:08:16;7.13;;;4.88;;
30301;SDS011;17111;52.130;5.028;2023-11-22T12:10:45;9.05;;;5.57;;
30301;SDS011;17111;52.130;5.028;2023-11-22T12:13:16;9.77;;;5.65;;
30301;SDS011;17111;52.130;5.028;2023-11-22T12:15:44;6.78;;;5.22;;
30301;SDS011;17111;52.130;5.028;2023-11-22T12:18:11;9.05;;;5.65;;
30301;SDS011;17111;52.130;5.028;2023-11-22T12:20:38;7.57;;;5.10;;
30301;SDS011;17111;52.130;5.028;2023-11-22T12:23:06;8.15;;;5.85;;
30301;SDS011;17111;52.130;5.028;2023-11-22T12:25:35;8.50;;;5.38;;
30301;SDS011;17111;52.130;5.028;2023-11-22T12:28:02;7.40;;;5.18;;
30301;SDS011;17111;52.130;5.028;2023-11-22T12:30:34;9.10;;;5.65;;
30301;SDS011;17111;52.130;5.028;2023-11-22T12:33:02;10.18;;;5.88;;
30301;SDS011;17111;52.130;5.028;2023-11-22T12:35:34;8.75;;;5.63;;
30301;SDS011;17111;52.130;5.028;2023-11-22T12:38:01;7.80;;;5.20;;
30301;SDS011;17111;52.130;5.028;2023-11-22T12:40:31;8.00;;;5.68;;
30301;SDS011;17111;52.130;5.028;2023-11-22T12:42:59;9.02;;;5.65;;
30301;SDS011;17111;52.130;5.028;2023-11-22T12:45:27;9.07;;;5.72;;
30301;SDS011;17111;52.130;5.028;2023-11-22T12:47:55;6.82;;;5.30;;
30301;SDS011;17111;52.130;5.028;2023-11-22T12:50:59;9.70;;;6.18;;
30301;SDS011;17111;52.130;5.028;2023-11-22T12:53:19;7.95;;;5.30;;
30301;SDS011;17111;52.130;5.028;2023-11-22T12:55:48;8.18;;;5.72;;
30301;SDS011;17111;52.130;5.028;2023-11-22T12:58:16;8.23;;;5.88;;
30301;SDS011;17111;52.130;5.028;2023-11-22T13:00:48;8.20;;;5.03;;
30301;SDS011;17111;52.130;5.028;2023-11-22T13:03:15;8.07;;;5.43;;
30301;SDS011;17111;52.130;5.028;2023-11-22T13:05:43;5.82;;;4.80;;
30301;SDS011;17111;52.130;5.028;2023-11-22T13:08:12;9.32;;;5.10;;
30301;SDS011;17111;52.130;5.028;2023-11-22T13:10:46;7.57;;;5.28;;
30301;SDS011;17111;52.130;5.028;2023-11-22T13:13:15;6.70;;;4.78;;
30301;SDS011;17111;52.130;5.028;2023-11-22T13:15:41;6.18;;;4.63;;
30301;SDS011;17111;52.130;5.028;2023-11-22T13:18:08;9.73;;;4.65;;
30301;SDS011;17111;52.130;5.028;2023-11-22T13:20:35;6.95;;;4.88;;
30301;SDS011;17111;52.130;5.028;2023-11-22T13:23:05;8.00;;;4.43;;
30301;SDS011;17111;52.130;5.028;2023-11-22T13:25:31;7.13;;;4.82;;
30301;SDS011;17111;52.130;5.028;2023-11-22T13:27:58;6.68;;;4.35;;
30301;SDS011;17111;52.130;5.028;2023-11-22T13:30:25;9.88;;;4.75;;
30301;SDS011;17111;52.130;5.028;2023-11-22T13:32:53;10.25;;;5.78;;
30301;SDS011;17111;52.130;5.028;2023-11-22T13:35:23;5.50;;;4.55;;
30301;SDS011;17111;52.130;5.028;2023-11-22T13:37:59;6.72;;;4.55;;
30301;SDS011;17111;52.130;5.028;2023-11-22T13:40:28;7.05;;;5.30;;
30301;SDS011;17111;52.130;5.028;2023-11-22T13:42:58;9.07;;;5.00;;
30301;SDS011;17111;52.130;5.028;2023-11-22T13:45:25;8.63;;;5.25;;
30301;SDS011;17111;52.130;5.028;2023-11-22T13:47:52;6.28;;;4.75;;
30301;SDS011;17111;52.130;5.028;2023-11-22T13:50:40;7.18;;;5.05;;
30301;SDS011;17111;52.130;5.028;2023-11-22T13:53:07;7.10;;;4.57;;
30301;SDS011;17111;52.130;5.028;2023-11-22T13:55:37;7.97;;;5.55;;
30301;SDS011;17111;52.130;5.028;2023-11-22T13:58:04;6.68;;;4.90;;
30301;SDS011;17111;52.130;5.028;2023-11-22T14:00:31;7.35;;;5.07;;
30301;SDS011;17111;52.130;5.028;2023-11-22T14:03:01;7.15;;;4.88;;
30301;SDS011;17111;52.130;5.028;2023-11-22T14:05:37;5.97;;;4.88;;
30301;SDS011;17111;52.130;5.028;2023-11-22T14:08:05;6.22;;;5.28;;
30301;SDS011;17111;52.130;5.028;2023-11-22T14:10:35;7.20;;;4.88;;
30301;SDS011;17111;52.130;5.028;2023-11-22T14:13:02;6.97;;;5.05;;
30301;SDS011;17111;52.130;5.028;2023-11-22T14:15:30;6.38;;;4.57;;
30301;SDS011;17111;52.130;5.028;2023-11-22T14:17:57;6.13;;;4.82;;
30301;SDS011;17111;52.130;5.028;2023-11-22T14:20:24;6.57;;;4.55;;
30301;SDS011;17111;52.130;5.028;2023-11-22T14:22:51;8.63;;;4.88;;
30301;SDS011;17111;52.130;5.028;2023-11-22T14:25:19;5.93;;;4.43;;
30301;SDS011;17111;52.130;5.028;2023-11-22T14:27:46;7.22;;;4.47;;
30301;SDS011;17111;52.130;5.028;2023-11-22T14:30:17;4.70;;;3.95;;
30301;SDS011;17111;52.130;5.028;2023-11-22T14:32:47;4.35;;;3.90;;
30301;SDS011;17111;52.130;5.028;2023-11-22T14:35:13;5.78;;;4.07;;
30301;SDS011;17111;52.130;5.028;2023-11-22T14:37:40;4.95;;;3.80;;
30301;SDS011;17111;52.130;5.028;2023-11-22T14:40:07;5.88;;;4.97;;
30301;SDS011;17111;52.130;5.028;2023-11-22T14:42:43;5.00;;;4.13;;
30301;SDS011;17111;52.130;5.028;2023-11-22T14:45:19;6.00;;;4.10;;
30301;SDS011;17111;52.130;5.028;2023-11-22T14:47:48;5.72;;;4.13;;
30301;SDS011;17111;52.130;5.028;2023-11-22T14:50:18;6.00;;;4.68;;
30301;SDS011;17111;52.130;5.028;2023-11-22T14:52:46;5.45;;;4.25;;